sensor_id;sensor_type;location;lat;lon;timestamp;P1;durP1;ratioP1;P2;durP2;ratioP2
4575;SDS011;2300;51.874;8.430;2023-05-07T00:00:18;19.93;;;15.63;;
4575;SDS011;2300;51.874;8.430;2023-05-07T00:02:45;25.90;;;16.73;;
4575;SDS011;2300;51.874;8.430;2023-05-07T00:05:11;25.65;;;16.75;;
4575;SDS011;2300;51.874;8.430;2023-05-07T00:07:38;21.47;;;17.10;;
4575;SDS011;2300;51.874;8.430;2023-05-07T00:10:05;21.55;;;16.83;;
4575;SDS011;2300;51.874;8.430;2023-05-07T00:12:34;24.73;;;18.05;;
4575;SDS011;2300;51.874;8.430;2023-05-07T00:15:01;22.35;;;16.67;;
4575;SDS011;2300;51.874;8.430;2023-05-07T00:17:28;22.83;;;16.67;;
4575;SDS011;2300;51.874;8.430;2023-05-07T00:19:55;21.37;;;17.37;;
4575;SDS011;2300;51.874;8.430;2023-05-07T00:22:21;23.70;;;17.33;;
4575;SDS011;2300;51.874;8.430;2023-05-07T00:24:48;20.70;;;16.50;;
4575;SDS011;2300;51.874;8.430;2023-05-07T00:27:15;25.67;;;17.35;;
4575;SDS011;2300;51.874;8.430;2023-05-07T00:29:44;24.63;;;17.63;;
4575;SDS011;2300;51.874;8.430;2023-05-07T00:32:11;24.37;;;17.80;;
4575;SDS011;2300;51.874;8.430;2023-05-07T00:34:37;21.77;;;17.17;;
4575;SDS011;2300;51.874;8.430;2023-05-07T00:37:04;21.97;;;17.83;;
4575;SDS011;2300;51.874;8.430;2023-05-07T00:39:32;24.53;;;17.93;;
4575;SDS011;2300;51.874;8.430;2023-05-07T00:41:59;23.52;;;18.30;;
4575;SDS011;2300;51.874;8.430;2023-05-07T00:44:25;21.77;;;18.08;;
4575;SDS011;2300;51.874;8.430;2023-05-07T00:46:54;23.50;;;18.58;;
4575;SDS011;2300;51.874;8.430;2023-05-07T00:49:23;25.43;;;18.80;;
4575;SDS011;2300;51.874;8.430;2023-05-07T00:51:56;24.77;;;20.03;;
4575;SDS011;2300;51.874;8.430;2023-05-07T00:54:22;26.83;;;20.37;;
4575;SDS011;2300;51.874;8.430;2023-05-07T00:56:49;24.67;;;19.40;;
4575;SDS011;2300;51.874;8.430;2023-05-07T00:59:16;24.43;;;19.50;;
4575;SDS011;2300;51.874;8.430;2023-05-07T01:01:42;24.93;;;18.73;;
4575;SDS011;2300;51.874;8.430;2023-05-07T01:04:10;24.77;;;19.40;;
4575;SDS011;2300;51.874;8.430;2023-05-07T01:06:37;25.77;;;18.20;;
4575;SDS011;2300;51.874;8.430;2023-05-07T01:09:04;24.60;;;19.70;;
4575;SDS011;2300;51.874;8.430;2023-05-07T01:11:31;25.77;;;19.93;;
4575;SDS011;2300;51.874;8.430;2023-05-07T01:13:58;25.17;;;20.67;;
4575;SDS011;2300;51.874;8.430;2023-05-07T01:16:25;28.17;;;20.57;;
4575;SDS011;2300;51.874;8.430;2023-05-07T01:18:52;25.98;;;20.77;;
4575;SDS011;2300;51.874;8.430;2023-05-07T01:21:20;25.87;;;20.43;;
4575;SDS011;2300;51.874;8.430;2023-05-07T01:23:53;24.05;;;19.75;;
4575;SDS011;2300;51.874;8.430;2023-05-07T01:26:20;24.70;;;20.30;;
4575;SDS011;2300;51.874;8.430;2023-05-07T01:28:49;25.37;;;20.57;;
4575;SDS011;2300;51.874;8.430;2023-05-07T01:31:16;26.10;;;19.80;;
4575;SDS011;2300;51.874;8.430;2023-05-07T01:33:43;26.25;;;21.10;;
4575;SDS011;2300;51.874;8.430;2023-05-07T01:36:12;24.47;;;20.23;;
4575;SDS011;2300;51.874;8.430;2023-05-07T01:38:39;25.70;;;20.10;;
4575;SDS011;2300;51.874;8.430;2023-05-07T01:41:09;24.02;;;20.13;;
4575;SDS011;2300;51.874;8.430;2023-05-07T01:43:37;26.00;;;21.13;;
4575;SDS011;2300;51.874;8.430;2023-05-07T01:46:03;26.58;;;21.08;;
4575;SDS011;2300;51.874;8.430;2023-05-07T01:48:30;25.85;;;22.48;;
4575;SDS011;2300;51.874;8.430;2023-05-07T01:50:57;29.90;;;22.57;;
4575;SDS011;2300;51.874;8.430;2023-05-07T01:53:25;27.50;;;22.97;;
4575;SDS011;2300;51.874;8.430;2023-05-07T01:55:53;26.60;;;22.67;;
4575;SDS011;2300;51.874;8.430;2023-05-07T01:58:20;27.97;;;22.90;;
4575;SDS011;2300;51.874;8.430;2023-05-07T02:00:47;26.95;;;23.05;;
4575;SDS011;2300;51.874;8.430;2023-05-07T02:03:13;29.73;;;22.83;;
4575;SDS011;2300;51.874;8.430;2023-05-07T02:05:40;27.67;;;21.75;;
4575;SDS011;2300;51.874;8.430;2023-05-07T02:08:06;26.25;;;21.50;;
4575;SDS011;2300;51.874;8.430;2023-05-07T02:10:33;25.30;;;22.47;;
4575;SDS011;2300;51.874;8.430;2023-05-07T02:13:01;28.58;;;23.67;;
4575;SDS011;2300;51.874;8.430;2023-05-07T02:15:29;31.43;;;23.20;;
4575;SDS011;2300;51.874;8.430;2023-05-07T02:17:59;28.43;;;23.93;;
4575;SDS011;2300;51.874;8.430;2023-05-07T02:20:26;30.03;;;23.50;;
4575;SDS011;2300;51.874;8.430;2023-05-07T02:22:53;31.23;;;24.90;;
4575;SDS011;2300;51.874;8.430;2023-05-07T02:25:20;29.70;;;24.53;;
4575;SDS011;2300;51.874;8.430;2023-05-07T02:27:47;27.63;;;23.90;;
4575;SDS011;2300;51.874;8.430;2023-05-07T02:30:13;29.40;;;23.90;;
4575;SDS011;2300;51.874;8.430;2023-05-07T02:32:42;30.15;;;24.17;;
4575;SDS011;2300;51.874;8.430;2023-05-07T02:35:09;29.40;;;24.80;;
4575;SDS011;2300;51.874;8.430;2023-05-07T02:37:36;30.57;;;24.37;;
4575;SDS011;2300;51.874;8.430;2023-05-07T02:40:03;31.02;;;24.88;;
4575;SDS011;2300;51.874;8.430;2023-05-07T02:42:30;31.27;;;25.63;;
4575;SDS011;2300;51.874;8.430;2023-05-07T02:44:56;29.97;;;24.97;;
4575;SDS011;2300;51.874;8.430;2023-05-07T02:47:23;32.07;;;25.03;;
4575;SDS011;2300;51.874;8.430;2023-05-07T02:49:54;31.20;;;25.73;;
4575;SDS011;2300;51.874;8.430;2023-05-07T02:52:21;32.80;;;25.43;;
4575;SDS011;2300;51.874;8.430;2023-05-07T02:54:47;35.30;;;26.67;;
4575;SDS011;2300;51.874;8.430;2023-05-07T02:57:14;29.23;;;24.00;;
4575;SDS011;2300;51.874;8.430;2023-05-07T02:59:41;31.53;;;25.63;;
4575;SDS011;2300;51.874;8.430;2023-05-07T03:02:07;27.40;;;23.63;;
4575;SDS011;2300;51.874;8.430;2023-05-07T03:04:35;27.53;;;23.47;;
4575;SDS011;2300;51.874;8.430;2023-05-07T03:07:02;30.80;;;22.87;;
4575;SDS011;2300;51.874;8.430;2023-05-07T03:09:29;28.70;;;22.33;;
4575;SDS011;2300;51.874;8.430;2023-05-07T03:11:56;29.43;;;24.07;;
4575;SDS011;2300;51.874;8.430;2023-05-07T03:14:22;31.17;;;24.23;;
4575;SDS011;2300;51.874;8.430;2023-05-07T03:16:49;29.30;;;23.37;;
4575;SDS011;2300;51.874;8.430;2023-05-07T03:19:16;30.77;;;23.67;;
4575;SDS011;2300;51.874;8.430;2023-05-07T03:21:42;32.10;;;24.53;;
4575;SDS011;2300;51.874;8.430;2023-05-07T03:24:10;31.23;;;24.37;;
4575;SDS011;2300;51.874;8.430;2023-05-07T03:26:36;29.40;;;23.87;;
4575;SDS011;2300;51.874;8.430;2023-05-07T03:29:03;30.20;;;23.87;;
4575;SDS011;2300;51.874;8.430;2023-05-07T03:31:30;30.77;;;24.73;;
4575;SDS011;2300;51.874;8.430;2023-05-07T03:33:57;31.20;;;24.27;;
4575;SDS011;2300;51.874;8.430;2023-05-07T03:36:24;29.33;;;23.20;;
4575;SDS011;2300;51.874;8.430;2023-05-07T03:38:51;31.33;;;25.00;;
4575;SDS011;2300;51.874;8.430;2023-05-07T03:41:19;31.50;;;24.67;;
4575;SDS011;2300;51.874;8.430;2023-05-07T03:43:46;33.95;;;25.92;;
4575;SDS011;2300;51.874;8.430;2023-05-07T03:46:12;30.43;;;24.90;;
4575;SDS011;2300;51.874;8.430;2023-05-07T03:48:39;31.40;;;24.40;;
4575;SDS011;2300;51.874;8.430;2023-05-07T03:51:05;28.83;;;23.33;;
4575;SDS011;2300;51.874;8.430;2023-05-07T03:53:32;31.03;;;24.27;;
4575;SDS011;2300;51.874;8.430;2023-05-07T03:55:58;31.13;;;23.13;;
4575;SDS011;2300;51.874;8.430;2023-05-07T03:58:26;35.20;;;26.03;;
4575;SDS011;2300;51.874;8.430;2023-05-07T04:00:53;32.00;;;24.60;;
4575;SDS011;2300;51.874;8.430;2023-05-07T04:03:19;34.23;;;25.73;;
4575;SDS011;2300;51.874;8.430;2023-05-07T04:05:46;34.20;;;24.33;;
4575;SDS011;2300;51.874;8.430;2023-05-07T04:08:12;34.57;;;25.63;;
4575;SDS011;2300;51.874;8.430;2023-05-07T04:10:39;32.77;;;25.63;;
4575;SDS011;2300;51.874;8.430;2023-05-07T04:13:05;35.10;;;26.33;;
4575;SDS011;2300;51.874;8.430;2023-05-07T04:15:33;32.77;;;26.00;;
4575;SDS011;2300;51.874;8.430;2023-05-07T04:17:59;33.43;;;26.37;;
4575;SDS011;2300;51.874;8.430;2023-05-07T04:20:26;33.77;;;25.50;;
4575;SDS011;2300;51.874;8.430;2023-05-07T04:22:52;36.23;;;25.43;;
4575;SDS011;2300;51.874;8.430;2023-05-07T04:25:19;32.97;;;25.87;;
4575;SDS011;2300;51.874;8.430;2023-05-07T04:27:46;35.80;;;26.20;;
4575;SDS011;2300;51.874;8.430;2023-05-07T04:30:14;34.63;;;26.53;;
4575;SDS011;2300;51.874;8.430;2023-05-07T04:32:42;36.05;;;26.65;;
4575;SDS011;2300;51.874;8.430;2023-05-07T04:35:09;35.60;;;27.10;;
4575;SDS011;2300;51.874;8.430;2023-05-07T04:37:36;36.87;;;27.27;;
4575;SDS011;2300;51.874;8.430;2023-05-07T04:40:02;36.20;;;27.90;;
4575;SDS011;2300;51.874;8.430;2023-05-07T04:42:29;37.33;;;26.30;;
4575;SDS011;2300;51.874;8.430;2023-05-07T04:44:56;36.03;;;27.23;;
4575;SDS011;2300;51.874;8.430;2023-05-07T04:47:22;35.37;;;25.67;;
4575;SDS011;2300;51.874;8.430;2023-05-07T04:49:50;38.37;;;29.77;;
4575;SDS011;2300;51.874;8.430;2023-05-07T04:52:17;36.93;;;27.87;;
4575;SDS011;2300;51.874;8.430;2023-05-07T04:54:43;37.50;;;28.03;;
4575;SDS011;2300;51.874;8.430;2023-05-07T04:57:10;37.97;;;28.87;;
4575;SDS011;2300;51.874;8.430;2023-05-07T04:59:36;40.20;;;26.93;;
4575;SDS011;2300;51.874;8.430;2023-05-07T05:02:03;39.20;;;28.93;;
4575;SDS011;2300;51.874;8.430;2023-05-07T05:04:30;40.23;;;28.77;;
4575;SDS011;2300;51.874;8.430;2023-05-07T05:06:58;39.83;;;29.43;;
4575;SDS011;2300;51.874;8.430;2023-05-07T05:09:25;36.70;;;27.37;;
4575;SDS011;2300;51.874;8.430;2023-05-07T05:11:51;38.13;;;27.43;;
4575;SDS011;2300;51.874;8.430;2023-05-07T05:14:18;39.47;;;27.80;;
4575;SDS011;2300;51.874;8.430;2023-05-07T05:16:44;39.37;;;28.23;;
4575;SDS011;2300;51.874;8.430;2023-05-07T05:19:11;35.77;;;26.50;;
4575;SDS011;2300;51.874;8.430;2023-05-07T05:21:37;34.83;;;26.93;;
4575;SDS011;2300;51.874;8.430;2023-05-07T05:24:05;40.53;;;28.53;;
4575;SDS011;2300;51.874;8.430;2023-05-07T05:26:32;39.58;;;28.67;;
4575;SDS011;2300;51.874;8.430;2023-05-07T05:28:59;36.57;;;27.50;;
4575;SDS011;2300;51.874;8.430;2023-05-07T05:31:25;33.23;;;25.37;;
4575;SDS011;2300;51.874;8.430;2023-05-07T05:33:52;36.10;;;26.53;;
4575;SDS011;2300;51.874;8.430;2023-05-07T05:36:18;38.70;;;27.30;;
4575;SDS011;2300;51.874;8.430;2023-05-07T05:38:45;36.20;;;26.60;;
4575;SDS011;2300;51.874;8.430;2023-05-07T05:41:12;37.20;;;27.07;;
4575;SDS011;2300;51.874;8.430;2023-05-07T05:43:39;38.80;;;27.60;;
4575;SDS011;2300;51.874;8.430;2023-05-07T05:46:08;38.60;;;27.57;;
4575;SDS011;2300;51.874;8.430;2023-05-07T05:48:36;38.77;;;27.03;;
4575;SDS011;2300;51.874;8.430;2023-05-07T05:51:03;37.88;;;27.42;;
4575;SDS011;2300;51.874;8.430;2023-05-07T05:53:29;35.13;;;27.20;;
4575;SDS011;2300;51.874;8.430;2023-05-07T05:55:56;33.92;;;25.85;;
4575;SDS011;2300;51.874;8.430;2023-05-07T05:58:23;33.70;;;25.48;;
4575;SDS011;2300;51.874;8.430;2023-05-07T06:00:50;36.95;;;26.20;;
4575;SDS011;2300;51.874;8.430;2023-05-07T06:03:18;35.58;;;26.90;;
4575;SDS011;2300;51.874;8.430;2023-05-07T06:05:45;35.97;;;26.92;;
4575;SDS011;2300;51.874;8.430;2023-05-07T06:08:11;34.10;;;25.63;;
4575;SDS011;2300;51.874;8.430;2023-05-07T06:10:37;37.90;;;26.40;;
4575;SDS011;2300;51.874;8.430;2023-05-07T06:13:04;35.17;;;27.03;;
4575;SDS011;2300;51.874;8.430;2023-05-07T06:15:32;35.87;;;25.63;;
4575;SDS011;2300;51.874;8.430;2023-05-07T06:17:59;32.57;;;25.07;;
4575;SDS011;2300;51.874;8.430;2023-05-07T06:20:26;34.08;;;25.77;;
4575;SDS011;2300;51.874;8.430;2023-05-07T06:22:52;36.83;;;25.83;;
4575;SDS011;2300;51.874;8.430;2023-05-07T06:25:19;33.50;;;25.57;;
4575;SDS011;2300;51.874;8.430;2023-05-07T06:27:46;35.23;;;25.43;;
4575;SDS011;2300;51.874;8.430;2023-05-07T06:30:12;35.63;;;25.45;;
4575;SDS011;2300;51.874;8.430;2023-05-07T06:32:41;33.58;;;24.80;;
4575;SDS011;2300;51.874;8.430;2023-05-07T06:35:08;36.50;;;25.83;;
4575;SDS011;2300;51.874;8.430;2023-05-07T06:37:34;33.07;;;24.63;;
4575;SDS011;2300;51.874;8.430;2023-05-07T06:40:04;34.65;;;24.38;;
4575;SDS011;2300;51.874;8.430;2023-05-07T06:42:32;32.63;;;25.33;;
4575;SDS011;2300;51.874;8.430;2023-05-07T06:44:58;33.33;;;24.53;;
4575;SDS011;2300;51.874;8.430;2023-05-07T06:47:25;33.70;;;25.15;;
4575;SDS011;2300;51.874;8.430;2023-05-07T06:49:52;31.23;;;23.42;;
4575;SDS011;2300;51.874;8.430;2023-05-07T06:52:19;30.52;;;22.83;;
4575;SDS011;2300;51.874;8.430;2023-05-07T06:54:45;32.83;;;23.17;;
4575;SDS011;2300;51.874;8.430;2023-05-07T06:57:12;28.75;;;22.38;;
4575;SDS011;2300;51.874;8.430;2023-05-07T06:59:38;30.77;;;23.80;;
4575;SDS011;2300;51.874;8.430;2023-05-07T07:02:05;28.70;;;21.83;;
4575;SDS011;2300;51.874;8.430;2023-05-07T07:04:32;29.55;;;22.33;;
4575;SDS011;2300;51.874;8.430;2023-05-07T07:07:00;27.10;;;20.77;;
4575;SDS011;2300;51.874;8.430;2023-05-07T07:09:26;30.08;;;22.25;;
4575;SDS011;2300;51.874;8.430;2023-05-07T07:11:53;30.80;;;22.00;;
4575;SDS011;2300;51.874;8.430;2023-05-07T07:14:19;27.38;;;21.00;;
4575;SDS011;2300;51.874;8.430;2023-05-07T07:16:47;27.10;;;20.70;;
4575;SDS011;2300;51.874;8.430;2023-05-07T07:19:13;27.13;;;21.00;;
4575;SDS011;2300;51.874;8.430;2023-05-07T07:21:41;29.40;;;21.25;;
4575;SDS011;2300;51.874;8.430;2023-05-07T07:24:11;26.92;;;20.35;;
4575;SDS011;2300;51.874;8.430;2023-05-07T07:26:37;28.83;;;20.40;;
4575;SDS011;2300;51.874;8.430;2023-05-07T07:29:06;26.33;;;20.73;;
4575;SDS011;2300;51.874;8.430;2023-05-07T07:31:32;25.20;;;18.83;;
4575;SDS011;2300;51.874;8.430;2023-05-07T07:33:59;24.00;;;18.75;;
4575;SDS011;2300;51.874;8.430;2023-05-07T07:36:26;26.50;;;19.05;;
4575;SDS011;2300;51.874;8.430;2023-05-07T07:38:53;24.73;;;18.92;;
4575;SDS011;2300;51.874;8.430;2023-05-07T07:41:21;23.10;;;18.25;;
4575;SDS011;2300;51.874;8.430;2023-05-07T07:43:47;23.92;;;18.77;;
4575;SDS011;2300;51.874;8.430;2023-05-07T07:46:14;25.25;;;19.15;;
4575;SDS011;2300;51.874;8.430;2023-05-07T07:48:40;24.17;;;18.63;;
4575;SDS011;2300;51.874;8.430;2023-05-07T07:51:07;23.98;;;19.33;;
4575;SDS011;2300;51.874;8.430;2023-05-07T07:53:33;24.52;;;18.30;;
4575;SDS011;2300;51.874;8.430;2023-05-07T07:56:00;22.92;;;17.70;;
4575;SDS011;2300;51.874;8.430;2023-05-07T07:58:27;25.05;;;18.50;;
4575;SDS011;2300;51.874;8.430;2023-05-07T08:00:54;23.58;;;17.20;;
4575;SDS011;2300;51.874;8.430;2023-05-07T08:03:21;20.95;;;16.15;;
4575;SDS011;2300;51.874;8.430;2023-05-07T08:05:48;23.00;;;17.33;;
4575;SDS011;2300;51.874;8.430;2023-05-07T08:08:16;24.02;;;17.77;;
4575;SDS011;2300;51.874;8.430;2023-05-07T08:10:56;21.25;;;16.27;;
4575;SDS011;2300;51.874;8.430;2023-05-07T08:13:23;23.95;;;16.48;;
4575;SDS011;2300;51.874;8.430;2023-05-07T08:15:51;18.13;;;14.23;;
4575;SDS011;2300;51.874;8.430;2023-05-07T08:18:17;19.23;;;15.70;;
4575;SDS011;2300;51.874;8.430;2023-05-07T08:20:44;18.80;;;14.07;;
4575;SDS011;2300;51.874;8.430;2023-05-07T08:23:10;20.08;;;14.98;;
4575;SDS011;2300;51.874;8.430;2023-05-07T08:25:37;19.70;;;14.57;;
4575;SDS011;2300;51.874;8.430;2023-05-07T08:28:04;17.65;;;13.70;;
4575;SDS011;2300;51.874;8.430;2023-05-07T08:30:31;17.02;;;14.18;;
4575;SDS011;2300;51.874;8.430;2023-05-07T08:32:59;18.38;;;14.63;;
4575;SDS011;2300;51.874;8.430;2023-05-07T08:35:26;17.88;;;13.85;;
4575;SDS011;2300;51.874;8.430;2023-05-07T08:37:53;16.40;;;13.32;;
4575;SDS011;2300;51.874;8.430;2023-05-07T08:40:24;16.40;;;13.82;;
4575;SDS011;2300;51.874;8.430;2023-05-07T08:43:12;18.00;;;13.13;;
4575;SDS011;2300;51.874;8.430;2023-05-07T08:45:40;16.80;;;12.95;;
4575;SDS011;2300;51.874;8.430;2023-05-07T08:48:14;14.70;;;12.65;;
4575;SDS011;2300;51.874;8.430;2023-05-07T08:50:41;16.65;;;12.55;;
4575;SDS011;2300;51.874;8.430;2023-05-07T08:53:08;17.58;;;13.18;;
4575;SDS011;2300;51.874;8.430;2023-05-07T08:55:34;15.38;;;12.82;;
4575;SDS011;2300;51.874;8.430;2023-05-07T08:58:01;15.50;;;12.00;;
4575;SDS011;2300;51.874;8.430;2023-05-07T09:00:28;17.05;;;12.90;;
4575;SDS011;2300;51.874;8.430;2023-05-07T09:02:56;17.33;;;13.70;;
4575;SDS011;2300;51.874;8.430;2023-05-07T09:05:24;15.63;;;12.77;;
4575;SDS011;2300;51.874;8.430;2023-05-07T09:07:50;17.15;;;13.18;;
4575;SDS011;2300;51.874;8.430;2023-05-07T09:10:17;16.25;;;13.05;;
4575;SDS011;2300;51.874;8.430;2023-05-07T09:12:46;16.65;;;12.98;;
4575;SDS011;2300;51.874;8.430;2023-05-07T09:15:13;16.00;;;12.63;;
4575;SDS011;2300;51.874;8.430;2023-05-07T09:17:40;13.80;;;11.63;;
4575;SDS011;2300;51.874;8.430;2023-05-07T09:20:08;15.93;;;12.68;;
4575;SDS011;2300;51.874;8.430;2023-05-07T09:22:37;17.63;;;13.70;;
4575;SDS011;2300;51.874;8.430;2023-05-07T09:25:05;15.43;;;12.50;;
4575;SDS011;2300;51.874;8.430;2023-05-07T09:27:34;15.52;;;11.77;;
4575;SDS011;2300;51.874;8.430;2023-05-07T09:30:02;14.63;;;11.90;;
4575;SDS011;2300;51.874;8.430;2023-05-07T09:32:33;14.80;;;12.68;;
4575;SDS011;2300;51.874;8.430;2023-05-07T09:35:01;16.58;;;13.68;;
4575;SDS011;2300;51.874;8.430;2023-05-07T09:37:31;14.40;;;12.45;;
4575;SDS011;2300;51.874;8.430;2023-05-07T09:39:59;15.77;;;12.68;;
4575;SDS011;2300;51.874;8.430;2023-05-07T09:42:26;17.98;;;13.82;;
4575;SDS011;2300;51.874;8.430;2023-05-07T09:44:52;17.20;;;12.45;;
4575;SDS011;2300;51.874;8.430;2023-05-07T09:47:20;17.48;;;13.52;;
4575;SDS011;2300;51.874;8.430;2023-05-07T09:49:50;18.17;;;13.30;;
4575;SDS011;2300;51.874;8.430;2023-05-07T09:52:21;15.10;;;12.32;;
4575;SDS011;2300;51.874;8.430;2023-05-07T09:54:50;16.83;;;12.20;;
4575;SDS011;2300;51.874;8.430;2023-05-07T09:57:19;18.27;;;12.52;;
4575;SDS011;2300;51.874;8.430;2023-05-07T09:59:46;17.00;;;12.45;;
4575;SDS011;2300;51.874;8.430;2023-05-07T10:02:15;16.45;;;12.90;;
4575;SDS011;2300;51.874;8.430;2023-05-07T10:04:42;15.75;;;12.60;;
4575;SDS011;2300;51.874;8.430;2023-05-07T10:07:09;14.65;;;11.68;;
4575;SDS011;2300;51.874;8.430;2023-05-07T10:09:36;16.02;;;11.93;;
4575;SDS011;2300;51.874;8.430;2023-05-07T10:12:04;17.00;;;13.45;;
4575;SDS011;2300;51.874;8.430;2023-05-07T10:14:46;15.27;;;12.45;;
4575;SDS011;2300;51.874;8.430;2023-05-07T10:17:16;17.40;;;12.88;;
4575;SDS011;2300;51.874;8.430;2023-05-07T10:19:44;14.75;;;11.68;;
4575;SDS011;2300;51.874;8.430;2023-05-07T10:22:10;16.08;;;12.50;;
4575;SDS011;2300;51.874;8.430;2023-05-07T10:24:39;16.02;;;12.32;;
4575;SDS011;2300;51.874;8.430;2023-05-07T10:27:07;15.82;;;11.75;;
4575;SDS011;2300;51.874;8.430;2023-05-07T10:29:37;15.48;;;11.88;;
4575;SDS011;2300;51.874;8.430;2023-05-07T10:32:22;15.20;;;11.48;;
4575;SDS011;2300;51.874;8.430;2023-05-07T10:35:00;15.00;;;12.48;;
4575;SDS011;2300;51.874;8.430;2023-05-07T10:37:30;14.52;;;12.57;;
4575;SDS011;2300;51.874;8.430;2023-05-07T10:39:57;15.68;;;12.77;;
4575;SDS011;2300;51.874;8.430;2023-05-07T10:42:24;15.38;;;11.95;;
4575;SDS011;2300;51.874;8.430;2023-05-07T10:44:51;16.25;;;12.63;;
4575;SDS011;2300;51.874;8.430;2023-05-07T10:47:19;14.80;;;11.80;;
4575;SDS011;2300;51.874;8.430;2023-05-07T10:55:49;15.30;;;11.55;;
4575;SDS011;2300;51.874;8.430;2023-05-07T10:58:23;16.45;;;12.13;;
4575;SDS011;2300;51.874;8.430;2023-05-07T11:00:56;13.45;;;11.50;;
4575;SDS011;2300;51.874;8.430;2023-05-07T11:03:26;13.75;;;11.75;;
4575;SDS011;2300;51.874;8.430;2023-05-07T11:08:52;13.23;;;11.15;;
4575;SDS011;2300;51.874;8.430;2023-05-07T11:11:26;13.52;;;11.73;;
4575;SDS011;2300;51.874;8.430;2023-05-07T11:14:10;16.48;;;11.93;;
4575;SDS011;2300;51.874;8.430;2023-05-07T11:16:37;13.77;;;11.35;;
4575;SDS011;2300;51.874;8.430;2023-05-07T11:19:05;15.23;;;11.98;;
4575;SDS011;2300;51.874;8.430;2023-05-07T11:21:34;16.48;;;11.30;;
4575;SDS011;2300;51.874;8.430;2023-05-07T11:24:02;13.32;;;10.88;;
4575;SDS011;2300;51.874;8.430;2023-05-07T11:26:41;14.02;;;11.18;;
4575;SDS011;2300;51.874;8.430;2023-05-07T11:29:13;14.90;;;11.35;;
4575;SDS011;2300;51.874;8.430;2023-05-07T11:31:40;12.80;;;10.23;;
4575;SDS011;2300;51.874;8.430;2023-05-07T11:34:08;12.50;;;10.80;;
4575;SDS011;2300;51.874;8.430;2023-05-07T11:36:36;12.27;;;9.85;;
4575;SDS011;2300;51.874;8.430;2023-05-07T11:39:24;11.63;;;9.25;;
4575;SDS011;2300;51.874;8.430;2023-05-07T11:41:52;13.50;;;10.70;;
4575;SDS011;2300;51.874;8.430;2023-05-07T11:44:19;13.05;;;9.80;;
4575;SDS011;2300;51.874;8.430;2023-05-07T11:46:46;12.95;;;9.50;;
4575;SDS011;2300;51.874;8.430;2023-05-07T11:49:14;11.50;;;9.57;;
4575;SDS011;2300;51.874;8.430;2023-05-07T11:51:40;10.80;;;9.40;;
4575;SDS011;2300;51.874;8.430;2023-05-07T11:54:07;12.32;;;9.75;;
4575;SDS011;2300;51.874;8.430;2023-05-07T11:56:36;11.95;;;9.38;;
4575;SDS011;2300;51.874;8.430;2023-05-07T11:59:03;10.65;;;8.45;;
4575;SDS011;2300;51.874;8.430;2023-05-07T12:01:29;11.68;;;9.18;;
4575;SDS011;2300;51.874;8.430;2023-05-07T12:03:56;10.25;;;8.65;;
4575;SDS011;2300;51.874;8.430;2023-05-07T12:06:24;12.02;;;7.93;;
4575;SDS011;2300;51.874;8.430;2023-05-07T12:08:50;12.07;;;8.15;;
4575;SDS011;2300;51.874;8.430;2023-05-07T12:11:21;9.27;;;7.57;;
4575;SDS011;2300;51.874;8.430;2023-05-07T12:13:51;11.60;;;9.25;;
4575;SDS011;2300;51.874;8.430;2023-05-07T12:16:17;11.40;;;8.85;;
4575;SDS011;2300;51.874;8.430;2023-05-07T12:18:45;9.88;;;8.02;;
4575;SDS011;2300;51.874;8.430;2023-05-07T12:21:12;11.30;;;8.57;;
4575;SDS011;2300;51.874;8.430;2023-05-07T12:23:41;9.52;;;7.47;;
4575;SDS011;2300;51.874;8.430;2023-05-07T12:26:08;9.80;;;8.15;;
4575;SDS011;2300;51.874;8.430;2023-05-07T12:28:38;8.98;;;7.60;;
4575;SDS011;2300;51.874;8.430;2023-05-07T12:31:05;9.43;;;7.32;;
4575;SDS011;2300;51.874;8.430;2023-05-07T12:33:33;9.55;;;7.55;;
4575;SDS011;2300;51.874;8.430;2023-05-07T12:36:05;9.00;;;6.35;;
4575;SDS011;2300;51.874;8.430;2023-05-07T12:38:36;8.30;;;6.53;;
4575;SDS011;2300;51.874;8.430;2023-05-07T12:41:06;9.27;;;6.82;;
4575;SDS011;2300;51.874;8.430;2023-05-07T12:43:34;8.80;;;7.07;;
4575;SDS011;2300;51.874;8.430;2023-05-07T12:46:01;7.50;;;6.05;;
4575;SDS011;2300;51.874;8.430;2023-05-07T12:48:29;6.82;;;5.68;;
4575;SDS011;2300;51.874;8.430;2023-05-07T12:50:59;8.85;;;6.45;;
4575;SDS011;2300;51.874;8.430;2023-05-07T12:53:27;7.88;;;6.50;;
4575;SDS011;2300;51.874;8.430;2023-05-07T12:55:55;9.57;;;5.78;;
4575;SDS011;2300;51.874;8.430;2023-05-07T12:58:25;9.52;;;6.07;;
4575;SDS011;2300;51.874;8.430;2023-05-07T13:00:53;7.90;;;5.45;;
4575;SDS011;2300;51.874;8.430;2023-05-07T13:03:24;6.13;;;5.20;;
4575;SDS011;2300;51.874;8.430;2023-05-07T13:05:52;7.22;;;5.60;;
4575;SDS011;2300;51.874;8.430;2023-05-07T13:08:23;7.72;;;5.95;;
4575;SDS011;2300;51.874;8.430;2023-05-07T13:10:51;7.00;;;5.28;;
4575;SDS011;2300;51.874;8.430;2023-05-07T13:13:18;7.22;;;5.32;;
4575;SDS011;2300;51.874;8.430;2023-05-07T13:15:47;6.97;;;5.70;;
4575;SDS011;2300;51.874;8.430;2023-05-07T13:18:14;7.00;;;5.40;;
4575;SDS011;2300;51.874;8.430;2023-05-07T13:20:40;7.72;;;5.30;;
4575;SDS011;2300;51.874;8.430;2023-05-07T13:23:07;7.13;;;5.90;;
4575;SDS011;2300;51.874;8.430;2023-05-07T13:25:35;7.55;;;5.35;;
4575;SDS011;2300;51.874;8.430;2023-05-07T13:28:02;8.93;;;5.38;;
4575;SDS011;2300;51.874;8.430;2023-05-07T13:30:29;7.47;;;5.38;;
4575;SDS011;2300;51.874;8.430;2023-05-07T13:32:57;7.13;;;4.80;;
4575;SDS011;2300;51.874;8.430;2023-05-07T13:35:24;6.55;;;5.40;;
4575;SDS011;2300;51.874;8.430;2023-05-07T13:37:50;6.95;;;5.75;;
4575;SDS011;2300;51.874;8.430;2023-05-07T13:40:18;7.95;;;5.78;;
4575;SDS011;2300;51.874;8.430;2023-05-07T13:42:44;10.10;;;8.48;;
4575;SDS011;2300;51.874;8.430;2023-05-07T13:47:42;5.45;;;4.43;;
4575;SDS011;2300;51.874;8.430;2023-05-07T13:50:10;5.45;;;4.40;;
4575;SDS011;2300;51.874;8.430;2023-05-07T13:52:38;6.72;;;5.15;;
4575;SDS011;2300;51.874;8.430;2023-05-07T13:55:07;8.25;;;5.20;;
4575;SDS011;2300;51.874;8.430;2023-05-07T13:57:33;8.40;;;5.25;;
4575;SDS011;2300;51.874;8.430;2023-05-07T14:00:00;6.95;;;5.47;;
4575;SDS011;2300;51.874;8.430;2023-05-07T14:02:29;6.97;;;5.43;;
4575;SDS011;2300;51.874;8.430;2023-05-07T14:04:57;10.13;;;5.82;;
4575;SDS011;2300;51.874;8.430;2023-05-07T14:07:25;6.07;;;5.43;;
4575;SDS011;2300;51.874;8.430;2023-05-07T14:09:52;7.85;;;5.22;;
4575;SDS011;2300;51.874;8.430;2023-05-07T14:12:18;8.75;;;5.78;;
4575;SDS011;2300;51.874;8.430;2023-05-07T14:14:45;7.03;;;5.32;;
4575;SDS011;2300;51.874;8.430;2023-05-07T14:17:12;10.02;;;8.05;;
4575;SDS011;2300;51.874;8.430;2023-05-07T14:19:38;6.60;;;5.20;;
4575;SDS011;2300;51.874;8.430;2023-05-07T14:22:09;9.73;;;7.68;;
4575;SDS011;2300;51.874;8.430;2023-05-07T14:24:37;6.65;;;5.60;;
4575;SDS011;2300;51.874;8.430;2023-05-07T14:27:04;6.75;;;5.88;;
4575;SDS011;2300;51.874;8.430;2023-05-07T14:29:31;6.90;;;5.40;;
4575;SDS011;2300;51.874;8.430;2023-05-07T14:31:58;7.13;;;5.70;;
4575;SDS011;2300;51.874;8.430;2023-05-07T14:34:24;8.52;;;6.15;;
4575;SDS011;2300;51.874;8.430;2023-05-07T14:36:51;7.95;;;6.15;;
4575;SDS011;2300;51.874;8.430;2023-05-07T14:39:17;7.45;;;5.65;;
4575;SDS011;2300;51.874;8.430;2023-05-07T14:41:45;8.38;;;5.78;;
4575;SDS011;2300;51.874;8.430;2023-05-07T14:44:12;7.25;;;6.05;;
4575;SDS011;2300;51.874;8.430;2023-05-07T14:46:38;8.02;;;6.82;;
4575;SDS011;2300;51.874;8.430;2023-05-07T14:49:05;9.05;;;6.32;;
4575;SDS011;2300;51.874;8.430;2023-05-07T14:51:36;7.55;;;6.18;;
4575;SDS011;2300;51.874;8.430;2023-05-07T14:54:02;7.30;;;6.50;;
4575;SDS011;2300;51.874;8.430;2023-05-07T14:56:29;8.07;;;6.18;;
4575;SDS011;2300;51.874;8.430;2023-05-07T14:58:57;11.50;;;6.88;;
4575;SDS011;2300;51.874;8.430;2023-05-07T15:01:25;9.25;;;6.60;;
4575;SDS011;2300;51.874;8.430;2023-05-07T15:03:51;8.77;;;7.43;;
4575;SDS011;2300;51.874;8.430;2023-05-07T15:06:18;8.90;;;7.30;;